KMKC/MKC METAR and TAF weather

Enter ICAO airport designator
Station Type Date Time Source
KMKC METAR 2021/08/01 17:54 UTC NOAA

KMKC 011754Z 35008KT 6SM HZ FU CLR 28/14 A3012 RMK AO2 SLP193 T02780139 10283 20200 55001


Station Type Date Time Source
KMKC Decoded METAR 2021/08/01 17:54 UTC NOAA

KANSAS CITY DOWNTOWN AIRPORT , MO, United States (KMKC) 39-07N 094-36W 227M
Aug 01, 2021 - 01:54 PM EDT / 2021.08.01 1754 UTC
Wind: from the N (350 degrees) at 9 MPH (8 KT):0
Visibility: 6 mile(s):0
Sky conditions: clear
Weather: haze; smoke
Temperature: 82.0 F (27.8 C)
Dew Point: 57.0 F (13.9 C)
Relative Humidity: 42%
Pressure (altimeter): 30.12 in. Hg (1019 hPa)
Pressure tendency: 0.00 inches (0.1 hPa) lower than three hours ago
ob: KMKC 011754Z 35008KT 6SM HZ FU CLR 28/14 A3012 RMK AO2 SLP193 T02780139 10283 20200 55001
cycle: 18

Station Type Date Time Source
KMKC TAF 2021/08/01 18:22 UTC NOAA

TAF KMKC 011720Z 0118/0218 35008KT P6SM SCT200
FM020200 36005KT P6SM SCT200

Example: see airport list